createdAt,value
2018-12-20T00:01:52.971Z,32.70
2018-12-20T00:04:23.646Z,31.50
2018-12-20T00:07:04.148Z,31.47
2018-12-20T00:09:35.526Z,31.60
2018-12-20T00:12:16.036Z,35.77
2018-12-20T00:14:46.694Z,31.63
2018-12-20T00:17:32.850Z,33.13
2018-12-20T00:20:04.813Z,33.70
2018-12-20T00:22:35.780Z,33.07
2018-12-20T00:25:16.273Z,34.83
2018-12-20T00:27:46.903Z,32.17
2018-12-20T00:30:20.791Z,32.53
2018-12-20T00:33:01.562Z,32.27
2018-12-20T00:35:42.440Z,30.17
2018-12-20T00:38:23.548Z,34.87
2018-12-20T00:40:54.943Z,30.47
2018-12-20T00:43:26.206Z,30.93
2018-12-20T00:46:06.952Z,29.97
2018-12-20T00:48:41.295Z,27.77
2018-12-20T00:51:12.398Z,28.73
2018-12-20T00:53:46.280Z,30.33
2018-12-20T00:56:26.552Z,30.27
2018-12-20T00:59:07.513Z,27.80
2018-12-20T01:01:41.804Z,30.47
2018-12-20T01:04:22.187Z,27.33
2018-12-20T01:06:55.514Z,28.17
2018-12-20T01:09:26.707Z,32.60
2018-12-20T01:12:07.233Z,28.60
2018-12-20T01:14:48.002Z,27.10
2018-12-20T01:17:30.735Z,30.27
2018-12-20T01:20:04.691Z,30.60
2018-12-20T01:22:45.639Z,32.07
2018-12-20T01:25:19.014Z,28.23
2018-12-20T01:27:50.171Z,28.63
2018-12-20T01:30:21.551Z,27.33
2018-12-20T01:33:02.128Z,27.93
2018-12-20T01:35:32.791Z,26.60
2018-12-20T01:38:13.033Z,27.30
2018-12-20T01:40:47.200Z,29.27
2018-12-20T01:43:27.744Z,26.80
2018-12-20T01:45:58.636Z,37.60
2018-12-20T01:48:39.001Z,27.00
2018-12-20T01:51:09.671Z,27.97
2018-12-20T01:53:38.559Z,28.77
2018-12-20T01:56:07.660Z,28.70
2018-12-20T01:58:38.564Z,26.90
2018-12-20T02:01:09.503Z,28.40
2018-12-20T02:03:43.410Z,27.07
2018-12-20T02:06:14.748Z,25.80
2018-12-20T02:08:54.919Z,26.33
2018-12-20T02:11:25.848Z,30.50
2018-12-20T02:13:56.603Z,27.00
2018-12-20T02:16:37.274Z,27.30
2018-12-20T02:19:06.870Z,25.50
2018-12-20T02:21:40.633Z,26.93
2018-12-20T02:24:21.161Z,26.30
2018-12-20T02:26:54.472Z,26.93
2018-12-20T02:29:28.542Z,28.00
2018-12-20T02:32:09.082Z,27.17
2018-12-20T02:34:39.150Z,26.80
2018-12-20T02:37:08.729Z,28.00
2018-12-20T02:39:39.766Z,27.80
2018-12-20T02:42:20.173Z,28.03
2018-12-20T02:44:53.615Z,25.27
2018-12-20T02:47:34.168Z,26.67
2018-12-20T02:50:05.707Z,27.03
2018-12-20T02:52:46.014Z,26.53
2018-12-20T02:55:26.811Z,25.80
2018-12-20T02:58:00.194Z,29.40
2018-12-20T03:00:31.411Z,27.67
2018-12-20T03:03:02.626Z,26.77
2018-12-20T03:05:31.726Z,25.90
2018-12-20T03:08:05.634Z,26.70
2018-12-20T03:10:39.330Z,25.63
2018-12-20T03:13:19.681Z,27.20
2018-12-20T03:15:59.903Z,28.50
2018-12-20T03:18:39.875Z,26.70
2018-12-20T03:21:13.235Z,25.27
2018-12-20T03:23:54.010Z,25.87
2018-12-20T03:26:34.629Z,24.87
2018-12-20T03:29:14.743Z,24.13
2018-12-20T03:31:48.953Z,25.70
2018-12-20T03:34:29.833Z,24.80
2018-12-20T03:37:03.505Z,26.70
2018-12-20T03:39:34.882Z,22.77
2018-12-20T03:42:04.219Z,25.73
2018-12-20T03:44:44.614Z,23.43
2018-12-20T03:47:25.606Z,24.20
2018-12-20T03:50:00.011Z,25.17
2018-12-20T03:52:29.236Z,24.67
2018-12-20T03:55:09.919Z,24.87
2018-12-20T03:57:46.006Z,27.80
2018-12-20T04:00:15.434Z,25.13
2018-12-20T04:02:49.323Z,24.53
2018-12-20T04:05:20.590Z,22.13
2018-12-20T04:07:51.515Z,21.17
2018-12-20T04:10:22.436Z,21.93
2018-12-20T04:12:53.462Z,25.33
2018-12-20T04:15:22.613Z,23.03
2018-12-20T04:17:56.548Z,23.27
2018-12-20T04:20:27.631Z,27.93
2018-12-20T04:23:08.236Z,23.73
2018-12-20T04:25:44.238Z,25.03
2018-12-20T04:28:18.481Z,26.60
2018-12-20T04:30:49.729Z,25.37
2018-12-20T04:33:23.478Z,23.40
2018-12-20T04:36:04.283Z,24.10
2018-12-20T04:38:45.258Z,23.20
2018-12-20T04:41:19.371Z,27.97
2018-12-20T04:44:00.171Z,22.33
2018-12-20T04:46:34.195Z,29.23
2018-12-20T04:49:08.099Z,25.00
2018-12-20T04:51:41.979Z,27.13
2018-12-20T04:54:22.656Z,25.27
2018-12-20T04:57:03.619Z,28.73
2018-12-20T04:59:36.983Z,23.90
2018-12-20T05:02:17.450Z,23.67
2018-12-20T05:04:57.401Z,23.10
2018-12-20T05:07:37.618Z,23.07
2018-12-20T05:10:08.905Z,23.57
2018-12-20T05:12:49.290Z,22.10
2018-12-20T05:15:29.416Z,25.47
2018-12-20T05:18:09.721Z,22.70
2018-12-20T05:20:43.482Z,24.67
2018-12-20T05:23:24.090Z,27.33
2018-12-20T05:25:58.383Z,25.90
2018-12-20T05:28:39.055Z,23.17
2018-12-20T05:31:09.779Z,22.30
2018-12-20T05:33:50.419Z,23.63
2018-12-20T05:36:24.409Z,21.33
2018-12-20T05:39:05.459Z,24.43
2018-12-20T05:41:36.908Z,24.20
2018-12-20T05:44:10.898Z,22.90
2018-12-20T05:46:51.679Z,24.60
2018-12-20T05:49:31.659Z,27.10
2018-12-20T05:52:11.827Z,24.70
2018-12-20T05:54:41.253Z,27.70
2018-12-20T05:57:21.748Z,27.97
2018-12-20T05:59:53.280Z,28.90
2018-12-20T06:02:33.652Z,29.67
2018-12-20T06:05:05.962Z,24.53
2018-12-20T06:07:46.667Z,26.50
2018-12-20T06:10:27.196Z,29.27
2018-12-20T06:13:08.020Z,30.20
2018-12-20T06:15:42.088Z,29.67
2018-12-20T06:18:11.231Z,33.43
2018-12-20T06:20:40.242Z,33.87
2018-12-20T06:23:20.918Z,29.07
2018-12-20T06:25:51.554Z,30.60
2018-12-20T06:28:22.643Z,29.37
2018-12-20T06:30:53.487Z,30.20
2018-12-20T06:33:33.884Z,31.63
2018-12-20T06:36:04.487Z,33.80
2018-12-20T06:38:44.997Z,33.57
2018-12-20T06:41:18.286Z,33.57
2018-12-20T06:43:47.542Z,40.23
2018-12-20T06:46:21.271Z,34.53
2018-12-20T06:49:01.339Z,38.10
2018-12-20T06:51:32.687Z,33.47
2018-12-20T06:54:13.295Z,34.70
2018-12-20T06:56:54.187Z,32.10
2018-12-20T06:59:24.840Z,36.50
2018-12-20T07:02:02.490Z,35.17
2018-12-20T07:04:43.076Z,35.97
2018-12-20T07:07:17.370Z,33.93
2018-12-20T07:09:48.503Z,36.47
2018-12-20T07:12:22.205Z,36.77
2018-12-20T07:15:02.759Z,36.47
2018-12-20T07:17:42.971Z,32.97
2018-12-20T07:20:13.722Z,33.07
2018-12-20T07:22:47.919Z,34.43
2018-12-20T07:25:18.707Z,35.90
2018-12-20T07:27:59.081Z,39.03
2018-12-20T07:30:30.360Z,35.40
2018-12-20T07:33:10.583Z,33.90
2018-12-20T07:35:41.279Z,38.40
2018-12-20T07:38:21.619Z,35.20
2018-12-20T07:40:51.050Z,39.50
2018-12-20T07:43:31.730Z,39.40
2018-12-20T07:46:05.129Z,38.97
2018-12-20T07:48:36.400Z,37.43
2018-12-20T07:51:07.347Z,33.37
2018-12-20T07:53:48.039Z,38.60
2018-12-20T07:56:28.191Z,37.20
2018-12-20T07:59:05.495Z,37.00
2018-12-20T08:01:39.595Z,35.70
2018-12-20T08:04:20.154Z,31.87
2018-12-20T08:07:00.111Z,35.43
2018-12-20T08:09:34.343Z,34.50
2018-12-20T08:12:14.935Z,37.83
2018-12-20T08:14:52.293Z,36.97
2018-12-20T08:17:26.399Z,38.30
2018-12-20T08:20:00.430Z,36.53
2018-12-20T08:22:41.016Z,35.33
2018-12-20T08:25:21.111Z,34.30
2018-12-20T08:28:01.959Z,38.30
2018-12-20T08:30:33.430Z,35.63
2018-12-20T08:33:13.919Z,35.80
2018-12-20T08:35:53.976Z,40.13
2018-12-20T08:38:34.150Z,36.47
2018-12-20T08:41:05.623Z,37.60
2018-12-20T08:43:39.419Z,37.03
2018-12-20T08:46:08.574Z,35.47
2018-12-20T08:48:49.092Z,33.10
2018-12-20T08:51:19.718Z,32.10
2018-12-20T08:54:00.267Z,33.20
2018-12-20T08:56:40.242Z,29.47
2018-12-20T08:59:09.622Z,29.40
2018-12-20T09:01:40.632Z,30.50
2018-12-20T09:04:21.038Z,29.67
2018-12-20T09:07:01.092Z,29.50
2018-12-20T09:09:31.652Z,28.60
2018-12-20T09:12:12.245Z,26.67
2018-12-20T09:14:52.331Z,28.70
2018-12-20T09:17:32.587Z,25.20
2018-12-20T09:20:07.148Z,24.37
2018-12-20T09:22:47.511Z,26.87
2018-12-20T09:25:28.416Z,24.70
2018-12-20T09:27:57.927Z,22.07
2018-12-20T09:30:30.571Z,25.97
2018-12-20T09:33:05.522Z,22.57
2018-12-20T09:35:46.307Z,20.47
2018-12-20T09:38:27.182Z,20.70
2018-12-20T09:40:58.647Z,20.97
2018-12-20T09:43:39.075Z,21.27
2018-12-20T09:46:19.190Z,21.40
2018-12-20T09:48:57.435Z,18.43
2018-12-20T09:51:28.931Z,19.23
2018-12-20T09:54:09.403Z,18.33
2018-12-20T09:56:42.804Z,19.40
2018-12-20T09:59:23.471Z,18.50
2018-12-20T10:02:03.572Z,20.77
2018-12-20T10:04:44.446Z,18.90
2018-12-20T10:07:21.670Z,20.57
2018-12-20T10:09:52.969Z,21.07
2018-12-20T10:12:33.243Z,18.10
2018-12-20T10:15:05.202Z,18.40
2018-12-20T10:17:45.288Z,19.20
2018-12-20T10:20:15.783Z,15.07
2018-12-20T10:22:56.495Z,16.70
2018-12-20T10:25:27.171Z,17.87
2018-12-20T10:27:58.319Z,16.10
2018-12-20T10:30:29.191Z,16.20
2018-12-20T10:33:09.763Z,13.63
2018-12-20T10:35:50.610Z,12.67
2018-12-20T10:38:30.559Z,12.83
2018-12-20T10:41:03.932Z,14.73
2018-12-20T10:43:44.788Z,14.17
2018-12-20T10:46:18.143Z,13.60
2018-12-20T10:48:47.275Z,14.00
2018-12-20T10:51:18.292Z,13.33
2018-12-20T10:53:58.704Z,12.80
2018-12-20T10:56:38.828Z,11.83
2018-12-20T10:59:18.776Z,9.83
2018-12-20T11:02:04.542Z,12.63
2018-12-20T11:04:50.531Z,8.80
2018-12-20T11:07:29.695Z,8.90
2018-12-20T11:10:26.285Z,8.03
2018-12-20T11:13:09.050Z,7.80
2018-12-20T11:15:42.534Z,7.43
2018-12-20T11:18:23.155Z,8.43
2018-12-20T11:20:54.643Z,8.63
2018-12-20T11:23:35.147Z,8.27
2018-12-20T11:26:15.920Z,7.70
2018-12-20T11:28:56.735Z,8.47
2018-12-20T11:31:28.236Z,6.37
2018-12-20T11:34:08.835Z,5.77
2018-12-20T11:36:48.870Z,7.27
2018-12-20T11:39:22.154Z,6.13
2018-12-20T11:42:02.802Z,5.47
2018-12-20T11:44:38.907Z,7.30
2018-12-20T11:47:24.535Z,7.03
2018-12-20T11:49:55.154Z,6.23
2018-12-20T11:52:24.054Z,7.00
2018-12-20T11:55:04.624Z,5.83
2018-12-20T11:57:45.359Z,6.47
2018-12-20T12:00:18.954Z,5.17
2018-12-20T12:02:47.955Z,5.33
2018-12-20T12:05:16.903Z,6.73
2018-12-20T12:07:57.323Z,5.20
2018-12-20T12:10:31.523Z,6.07
2018-12-20T12:13:05.471Z,5.80
2018-12-20T12:15:46.036Z,7.47
2018-12-20T12:18:22.107Z,7.13
2018-12-20T12:20:52.695Z,6.23
2018-12-20T12:23:23.743Z,7.37
2018-12-20T12:26:04.330Z,5.50
2018-12-20T12:28:45.115Z,7.30
2018-12-20T12:31:19.282Z,6.07
2018-12-20T12:33:48.373Z,5.73
2018-12-20T12:36:22.186Z,7.53
2018-12-20T12:38:56.043Z,6.47
2018-12-20T12:41:27.221Z,6.60
2018-12-20T12:44:09.337Z,8.90
2018-12-20T12:46:50.510Z,7.80
2018-12-20T12:49:24.181Z,7.50
2018-12-20T12:52:01.527Z,6.47
2018-12-20T12:54:32.930Z,7.90
2018-12-20T12:57:08.528Z,7.37
2018-12-20T12:59:42.492Z,8.20
2018-12-20T13:02:22.839Z,7.80
2018-12-20T13:05:02.759Z,7.00
2018-12-20T13:07:42.737Z,6.30
2018-12-20T13:10:13.296Z,7.63
2018-12-20T13:12:53.896Z,6.67
2018-12-20T13:15:33.883Z,7.30
2018-12-20T13:18:14.708Z,6.93
2018-12-20T13:20:48.948Z,7.13
2018-12-20T13:23:22.908Z,8.50
2018-12-20T13:25:54.055Z,7.40
2018-12-20T13:28:35.660Z,7.53
2018-12-20T13:31:10.003Z,6.70
2018-12-20T13:33:50.691Z,7.07
2018-12-20T13:36:23.965Z,7.60
2018-12-20T13:38:57.940Z,6.17
2018-12-20T13:41:29.069Z,9.27
2018-12-20T13:44:00.160Z,6.77
2018-12-20T13:46:40.647Z,7.83
2018-12-20T13:49:20.607Z,7.50
2018-12-20T13:51:51.948Z,9.70
2018-12-20T13:54:32.174Z,8.43
2018-12-20T13:57:12.166Z,8.93
2018-12-20T13:59:42.795Z,8.17
2018-12-20T14:02:23.058Z,9.07
2018-12-20T14:05:03.119Z,8.73
2018-12-20T14:07:31.886Z,8.37
2018-12-20T14:10:02.761Z,6.80
2018-12-20T14:12:40.516Z,6.90
2018-12-20T14:15:20.465Z,7.00
2018-12-20T14:18:00.419Z,5.93
2018-12-20T14:20:29.838Z,4.83
2018-12-20T14:23:10.592Z,4.30
2018-12-20T14:25:43.964Z,2.40
2018-12-20T14:28:19.828Z,3.77
2018-12-20T14:30:51.261Z,2.77
2018-12-20T14:33:32.890Z,3.13
2018-12-20T14:36:13.026Z,3.63
2018-12-20T14:38:52.995Z,3.57
2018-12-20T14:41:24.519Z,5.57
2018-12-20T14:43:58.095Z,2.13
2018-12-20T14:46:32.177Z,2.90
2018-12-20T14:49:12.711Z,3.10
2018-12-20T14:51:52.703Z,3.80
2018-12-20T14:54:32.800Z,2.87
2018-12-20T14:57:03.334Z,4.77
2018-12-20T14:59:34.162Z,5.30
2018-12-20T15:02:14.527Z,6.13
2018-12-20T15:04:54.571Z,5.90
2018-12-20T15:07:25.100Z,3.90
2018-12-20T15:09:56.127Z,3.83
2018-12-20T15:12:29.995Z,2.80
2018-12-20T15:15:10.615Z,1.77
2018-12-20T15:17:50.604Z,5.00
2018-12-20T15:20:24.763Z,2.63
2018-12-20T15:22:53.999Z,4.13
2018-12-20T15:25:34.344Z,3.53
2018-12-20T15:28:14.319Z,3.77
2018-12-20T15:30:44.814Z,2.37
2018-12-20T15:33:18.765Z,3.13
2018-12-20T15:35:52.808Z,3.50
2018-12-20T15:38:30.528Z,1.63
2018-12-20T15:41:04.660Z,3.80
2018-12-20T15:43:35.768Z,2.70
2018-12-20T15:46:06.702Z,4.50
2018-12-20T15:48:47.138Z,3.27
2018-12-20T15:51:20.578Z,3.70
2018-12-20T15:53:49.810Z,2.33
2018-12-20T15:56:25.719Z,2.63
2018-12-20T15:59:06.485Z,2.83
2018-12-20T16:01:47.267Z,4.27
2018-12-20T16:04:29.662Z,3.47
2018-12-20T16:07:09.857Z,3.80
2018-12-20T16:09:43.157Z,2.50
2018-12-20T16:12:23.850Z,4.27
2018-12-20T16:14:57.246Z,4.50
2018-12-20T16:17:26.283Z,2.63
2018-12-20T16:19:57.407Z,4.13
2018-12-20T16:22:37.751Z,3.93
2018-12-20T16:25:11.037Z,3.40
2018-12-20T16:27:51.855Z,5.63
2018-12-20T16:30:22.481Z,3.77
2018-12-20T16:33:03.194Z,6.40
2018-12-20T16:35:43.125Z,5.07
2018-12-20T16:38:23.290Z,5.53
2018-12-20T16:40:54.703Z,6.40
2018-12-20T16:43:35.154Z,4.40
2018-12-20T16:46:15.157Z,6.30
2018-12-20T16:48:48.647Z,5.50
2018-12-20T16:51:22.610Z,6.10
2018-12-20T16:54:03.294Z,5.10
2018-12-20T16:56:43.444Z,5.70
2018-12-20T16:59:23.542Z,7.63
2018-12-20T17:02:03.484Z,5.13
2018-12-20T17:04:43.430Z,7.17
2018-12-20T17:07:13.987Z,5.67
2018-12-20T17:09:45.206Z,7.63
2018-12-20T17:12:18.972Z,9.23
2018-12-20T17:14:59.667Z,8.43
2018-12-20T17:17:28.532Z,6.63
2018-12-20T17:19:59.584Z,10.90
2018-12-20T17:22:30.640Z,6.93
2018-12-20T17:25:11.230Z,8.43
2018-12-20T17:27:51.184Z,10.27
2018-12-20T17:30:21.926Z,9.90
2018-12-20T17:33:02.383Z,8.77
2018-12-20T17:35:42.677Z,9.27
2018-12-20T17:38:22.708Z,8.13
2018-12-20T17:40:54.214Z,9.83
2018-12-20T17:43:34.500Z,7.23
2018-12-20T17:46:10.627Z,8.83
2018-12-20T17:48:51.372Z,8.53
2018-12-20T17:51:21.918Z,6.13
2018-12-20T17:54:02.395Z,6.37
2018-12-20T17:56:33.805Z,6.37
2018-12-20T17:59:14.095Z,7.33
2018-12-20T18:01:54.927Z,7.80
2018-12-20T18:04:25.514Z,7.37
2018-12-20T18:06:54.430Z,6.43
2018-12-20T18:09:25.599Z,6.93
2018-12-20T18:12:06.087Z,5.20
2018-12-20T18:14:37.548Z,5.30
2018-12-20T18:17:21.259Z,7.17
2018-12-20T18:19:52.525Z,6.97
2018-12-20T18:22:26.242Z,8.57
2018-12-20T18:25:06.916Z,6.33
2018-12-20T18:27:37.534Z,5.93
2018-12-20T18:30:09.611Z,6.27
2018-12-20T18:32:43.423Z,5.17
2018-12-20T18:35:23.947Z,6.97
2018-12-20T18:37:55.432Z,6.20
2018-12-20T18:40:26.395Z,5.23
2018-12-20T18:43:07.031Z,7.50
2018-12-20T18:45:47.936Z,5.87
2018-12-20T18:48:25.163Z,6.37
2018-12-20T18:50:54.415Z,5.63
2018-12-20T18:53:35.004Z,5.30
2018-12-20T18:56:14.943Z,7.00
2018-12-20T18:58:54.850Z,6.67
2018-12-20T19:01:35.710Z,4.13
2018-12-20T19:04:15.650Z,4.93
2018-12-20T19:06:55.822Z,6.17
2018-12-20T19:09:30.068Z,4.57
2018-12-20T19:12:10.581Z,7.13
2018-12-20T19:14:47.941Z,6.43
2018-12-20T19:17:28.799Z,5.97
2018-12-20T19:20:02.192Z,5.43
2018-12-20T19:22:42.718Z,3.70
2018-12-20T19:25:22.891Z,6.27
2018-12-20T19:28:03.770Z,4.47
2018-12-20T19:30:35.244Z,6.07
2018-12-20T19:33:15.971Z,3.80
2018-12-20T19:35:56.117Z,5.03
2018-12-20T19:38:36.219Z,3.90
2018-12-20T19:41:06.967Z,5.23
2018-12-20T19:43:47.661Z,5.87
2018-12-20T19:46:21.040Z,4.73
2018-12-20T19:49:01.867Z,6.13
2018-12-20T19:51:32.391Z,3.83
2018-12-20T19:54:12.939Z,5.07
2018-12-20T19:56:53.131Z,5.73
2018-12-20T20:01:50.955Z,6.33
2018-12-20T20:04:31.405Z,9.97
2018-12-20T20:07:12.282Z,11.07
2018-12-20T20:09:42.907Z,7.93
2018-12-20T20:12:23.506Z,7.27
2018-12-20T20:15:03.546Z,5.50
2018-12-20T20:17:36.831Z,4.47
2018-12-20T20:20:14.227Z,5.53
2018-12-20T20:22:53.515Z,5.33
2018-12-20T20:25:24.079Z,7.70
2018-12-20T20:28:04.658Z,4.87
2018-12-20T20:30:38.225Z,4.30
2018-12-20T20:33:07.238Z,3.20
2018-12-20T20:35:36.388Z,4.40
2018-12-20T20:38:16.871Z,3.53
2018-12-20T20:40:47.596Z,4.90
2018-12-20T20:43:16.613Z,5.40
2018-12-20T20:45:56.847Z,3.37
2018-12-20T20:48:27.359Z,5.03
2018-12-20T20:50:58.516Z,3.70
2018-12-20T20:53:38.949Z,3.17
2018-12-20T20:56:18.994Z,2.97
2018-12-20T20:58:59.891Z,4.90
2018-12-20T21:04:09.970Z,3.23
2018-12-20T21:06:50.820Z,3.83
2018-12-20T21:09:30.841Z,3.90
2018-12-20T21:12:05.060Z,2.90
2018-12-20T21:14:52.415Z,3.53
2018-12-20T21:17:28.015Z,4.17
2018-12-20T21:19:58.596Z,2.33
2018-12-20T21:22:39.207Z,2.20
2018-12-20T21:25:20.076Z,6.27
2018-12-20T21:27:50.657Z,2.20
2018-12-20T21:30:21.678Z,3.03
2018-12-20T21:33:02.331Z,3.33
2018-12-20T21:35:42.438Z,2.63
2018-12-20T21:38:22.555Z,2.23
2018-12-20T21:40:53.183Z,5.57
2018-12-20T21:43:24.323Z,2.00
2018-12-20T21:46:04.698Z,2.77
2018-12-20T21:48:37.966Z,2.57
2018-12-20T21:51:09.105Z,2.53
2018-12-20T21:53:54.879Z,1.97
2018-12-20T21:56:22.380Z,2.70
2018-12-20T21:58:56.080Z,2.00
2018-12-20T22:01:29.871Z,3.20
2018-12-20T22:06:42.584Z,2.30
2018-12-20T22:09:14.034Z,3.70
2018-12-20T22:11:54.474Z,3.70
2018-12-20T22:14:35.375Z,1.83
2018-12-20T22:17:16.247Z,3.27
2018-12-20T22:19:46.958Z,2.07
2018-12-20T22:22:27.420Z,3.33
2018-12-20T22:24:57.992Z,4.10
2018-12-20T22:27:26.809Z,3.50
2018-12-20T22:29:57.887Z,1.53
2018-12-20T22:32:31.837Z,2.80
2018-12-20T22:35:12.402Z,2.27
2018-12-20T22:37:52.444Z,2.47
2018-12-20T22:40:23.087Z,1.53
2018-12-20T22:43:00.818Z,2.77
2018-12-20T22:45:41.658Z,3.50
2018-12-20T22:48:21.859Z,2.67
2018-12-20T22:50:56.031Z,3.03
2018-12-20T22:53:34.911Z,2.57
2018-12-20T22:56:08.203Z,3.00
2018-12-20T22:58:37.329Z,2.03
2018-12-20T23:01:08.379Z,2.73
2018-12-20T23:03:39.332Z,2.03
2018-12-20T23:06:13.127Z,2.20
2018-12-20T23:08:47.059Z,4.17
2018-12-20T23:11:20.856Z,2.80
2018-12-20T23:13:49.873Z,3.13
2018-12-20T23:16:30.463Z,1.73
2018-12-20T23:19:01.021Z,2.43
2018-12-20T23:21:31.871Z,1.60
2018-12-20T23:24:12.420Z,1.80
2018-12-20T23:26:49.742Z,1.47
2018-12-20T23:29:23.739Z,1.80
2018-12-20T23:32:01.459Z,1.20
2018-12-20T23:34:42.243Z,2.53
2018-12-20T23:37:16.355Z,1.93
2018-12-20T23:39:56.811Z,1.47
2018-12-20T23:42:37.565Z,3.57
2018-12-20T23:45:13.598Z,3.03
2018-12-20T23:47:54.343Z,3.37
2018-12-20T23:50:24.988Z,1.37
2018-12-20T23:52:56.012Z,2.23
2018-12-20T23:55:29.827Z,2.83
2018-12-20T23:57:59.059Z,1.80
